Time;durP1;ratioP1;P1;durP2;ratioP2;P2;SDS_P1;SDS_P2;PMS_P1;PMS_P2;Temp;Humidity;BMP_temperature;BMP_pressure;BME280_temperature;BME280_humidity;BME280_pressure;Samples;Min_cycle;Max_cycle;Signal;HPM_P1;HPM_P2
2023/06/17 00:00:36;;;;;;;8.07;7.40;;;15.30;1.00;;;;;;4998212;28;20557;-72
2023/06/17 00:03:03;;;;;;;8.80;8.03;;;15.40;1.00;;;;;;4996065;28;20840;-71
2023/06/17 00:05:30;;;;;;;9.03;8.30;;;15.40;1.00;;;;;;4993156;28;20494;-71
2023/06/17 00:07:59;;;;;;;9.40;8.57;;;15.40;1.00;;;;;;4993969;28;20909;-72
2023/06/17 00:10:26;;;;;;;8.53;7.80;;;15.40;1.00;;;;;;4998753;28;20540;-71
2023/06/17 00:12:54;;;;;;;8.17;7.43;;;15.40;1.00;;;;;;4995931;28;20553;-74
2023/06/17 00:15:22;;;;;;;9.00;8.27;;;15.40;1.00;;;;;;4996042;28;20470;-71
2023/06/17 00:17:50;;;;;;;8.53;7.93;;;15.40;1.00;;;;;;4993867;28;21741;-71
2023/06/17 00:20:17;;;;;;;9.03;8.23;;;15.40;1.00;;;;;;4994414;28;20477;-70
2023/06/17 00:22:44;;;;;;;9.20;8.50;;;15.40;1.00;;;;;;4994429;28;20463;-71
2023/06/17 00:25:13;;;;;;;8.83;8.13;;;15.40;1.00;;;;;;4994436;28;20529;-71
2023/06/17 00:27:41;;;;;;;9.13;8.23;;;15.40;1.00;;;;;;4993195;28;20470;-71
2023/06/17 00:30:08;;;;;;;9.40;8.47;;;15.40;1.00;;;;;;4994216;28;20509;-70
2023/06/17 00:32:36;;;;;;;8.83;8.13;;;15.40;1.00;;;;;;4994796;28;21021;-71
2023/06/17 00:35:04;;;;;;;8.87;7.97;;;15.40;1.00;;;;;;4995425;28;20486;-71
2023/06/17 00:37:32;;;;;;;10.17;9.17;;;15.40;1.00;;;;;;4994702;28;20925;-70
2023/06/17 00:39:59;;;;;;;9.13;8.23;;;15.40;1.00;;;;;;4994296;28;20477;-73
2023/06/17 00:42:27;;;;;;;8.33;7.53;;;15.50;1.00;;;;;;4994300;28;20478;-72
2023/06/17 00:44:54;;;;;;;9.63;8.63;;;15.50;1.00;;;;;;4990648;28;20513;-70
2023/06/17 00:47:21;;;;;;;9.10;8.30;;;15.50;1.00;;;;;;4992118;28;20896;-72
2023/06/17 00:49:49;;;;;;;9.30;8.50;;;15.50;1.00;;;;;;4993122;28;20539;-71
2023/06/17 00:52:16;;;;;;;9.00;8.30;;;15.50;1.00;;;;;;4996129;28;20465;-71
2023/06/17 00:54:43;;;;;;;9.53;8.83;;;15.50;1.00;;;;;;4995029;28;20492;-71
2023/06/17 00:57:14;;;;;;;9.80;8.90;;;15.50;1.00;;;;;;4992210;28;20578;-70
2023/06/17 00:59:44;;;;;;;8.73;8.03;;;15.50;1.00;;;;;;4993926;28;20483;-72
2023/06/17 01:02:13;;;;;;;8.30;7.60;;;15.50;1.00;;;;;;4990944;28;20454;-70
2023/06/17 01:04:42;;;;;;;9.70;8.80;;;15.50;1.00;;;;;;4995581;28;20814;-69
2023/06/17 01:07:23;;;;;;;9.27;8.47;;;15.50;1.00;;;;;;4992449;28;20475;-69
2023/06/17 01:09:56;;;;;;;10.37;9.43;;;15.50;1.00;;;;;;4993303;28;20469;-70
2023/06/17 01:12:26;;;;;;;9.20;8.40;;;15.60;1.00;;;;;;4992394;28;20550;-69
2023/06/17 01:14:57;;;;;;;9.10;8.30;;;15.50;1.00;;;;;;4993864;28;21028;-71
2023/06/17 01:17:25;;;;;;;10.50;9.50;;;15.50;1.00;;;;;;4991993;28;20497;-69
2023/06/17 01:19:53;;;;;;;10.60;9.70;;;15.60;1.00;;;;;;4990765;28;20577;-69
2023/06/17 01:22:22;;;;;;;9.27;8.57;;;15.60;1.00;;;;;;4991442;28;20463;-69
2023/06/17 01:24:51;;;;;;;9.30;8.50;;;15.60;1.00;;;;;;4995069;28;20558;-69
2023/06/17 01:27:18;;;;;;;10.30;9.50;;;15.60;1.00;;;;;;4992833;28;20459;-69
2023/06/17 01:29:48;;;;;;;11.33;10.23;;;15.60;1.00;;;;;;4990467;28;20488;-69
2023/06/17 01:32:15;;;;;;;11.60;10.60;;;15.60;1.00;;;;;;4993255;28;20466;-68
2023/06/17 01:34:49;;;;;;;11.20;10.07;;;15.60;1.00;;;;;;4993892;28;20555;-69
2023/06/17 01:37:21;;;;;;;11.47;10.03;;;15.60;1.00;;;;;;4992928;28;20538;-71
2023/06/17 01:39:51;;;;;;;10.67;9.87;;;15.70;1.00;;;;;;4990125;28;20479;-76
2023/06/17 01:42:23;;;;;;;10.87;9.97;;;15.70;1.00;;;;;;4993162;28;20456;-69
2023/06/17 01:44:51;;;;;;;9.87;8.97;;;15.70;1.00;;;;;;4993639;28;20475;-69
2023/06/17 01:47:18;;;;;;;10.50;9.50;;;15.70;1.00;;;;;;4989949;28;20455;-68
2023/06/17 01:49:45;;;;;;;10.07;9.27;;;15.70;1.00;;;;;;4994840;28;20601;-69
2023/06/17 01:52:12;;;;;;;9.53;8.63;;;15.70;1.00;;;;;;4991277;28;20463;-74
2023/06/17 01:54:39;;;;;;;9.90;9.00;;;15.70;1.00;;;;;;4990984;28;20481;-69
2023/06/17 01:57:08;;;;;;;10.50;9.60;;;15.70;1.00;;;;;;4990263;28;20463;-70
2023/06/17 01:59:35;;;;;;;11.93;10.93;;;15.70;1.00;;;;;;4992831;28;20861;-70
2023/06/17 02:02:02;;;;;;;10.93;10.00;;;15.70;1.00;;;;;;4990694;28;20910;-69
2023/06/17 02:04:29;;;;;;;10.17;9.37;;;15.80;1.00;;;;;;4994954;28;20493;-68
2023/06/17 02:06:56;;;;;;;11.20;10.23;;;15.80;1.00;;;;;;4993159;28;20455;-69
2023/06/17 02:09:23;;;;;;;10.30;9.50;;;15.80;1.00;;;;;;4992756;28;20979;-71
2023/06/17 02:11:52;;;;;;;11.90;10.80;;;15.80;1.00;;;;;;4993844;28;20943;-69
2023/06/17 02:14:20;;;;;;;10.90;10.00;;;15.80;1.00;;;;;;4994982;28;20475;-69
2023/06/17 02:16:48;;;;;;;12.00;10.80;;;15.80;1.00;;;;;;4993649;28;20467;-69
2023/06/17 02:19:15;;;;;;;11.37;10.37;;;15.80;1.00;;;;;;4991023;28;21541;-70
2023/06/17 02:21:43;;;;;;;11.47;10.40;;;15.90;1.00;;;;;;4994164;28;20909;-70
2023/06/17 02:24:11;;;;;;;12.57;11.47;;;15.90;1.00;;;;;;4990308;28;20467;-70
2023/06/17 02:26:39;;;;;;;11.43;10.43;;;15.90;1.00;;;;;;4991820;28;20558;-68
2023/06/17 02:29:06;;;;;;;12.90;11.53;;;15.80;1.00;;;;;;4990067;28;20545;-68
2023/06/17 02:31:34;;;;;;;11.93;10.80;;;15.90;1.00;;;;;;4993793;28;20471;-71
2023/06/17 02:34:03;;;;;;;12.47;11.37;;;15.90;1.00;;;;;;4992871;28;20863;-71
2023/06/17 02:36:30;;;;;;;12.50;11.30;;;15.90;1.00;;;;;;4993672;28;20475;-70
2023/06/17 02:38:59;;;;;;;13.20;11.90;;;15.80;1.00;;;;;;4990429;28;20471;-69
2023/06/17 02:41:26;;;;;;;13.20;12.00;;;15.80;1.00;;;;;;4991455;28;20967;-70
2023/06/17 02:43:53;;;;;;;13.13;11.93;;;15.90;1.00;;;;;;4990580;28;20498;-70
2023/06/17 02:46:20;;;;;;;11.70;10.67;;;15.90;1.00;;;;;;4988682;28;20455;-68
2023/06/17 02:48:48;;;;;;;12.50;11.30;;;15.90;1.00;;;;;;4990564;28;20475;-70
2023/06/17 02:51:16;;;;;;;10.57;9.57;;;15.90;1.00;;;;;;4990744;28;20554;-72
2023/06/17 02:53:43;;;;;;;11.90;10.83;;;15.90;1.00;;;;;;4990846;28;20469;-71
2023/06/17 02:56:10;;;;;;;12.70;11.40;;;15.90;1.00;;;;;;4990254;28;20452;-68
2023/06/17 02:58:37;;;;;;;12.47;11.37;;;16.00;1.00;;;;;;4988594;28;20484;-69
2023/06/17 03:01:05;;;;;;;11.60;10.60;;;16.00;1.00;;;;;;4986982;28;20447;-70
2023/06/17 03:03:36;;;;;;;11.60;10.67;;;16.00;1.00;;;;;;4989127;28;20466;-69
2023/06/17 03:06:06;;;;;;;11.50;10.50;;;15.90;1.00;;;;;;4984746;28;20522;-70
2023/06/17 03:08:34;;;;;;;11.50;10.50;;;16.00;1.00;;;;;;4990501;28;20581;-70
2023/06/17 03:11:01;;;;;;;11.67;10.50;;;16.00;1.00;;;;;;4991306;28;20454;-68
2023/06/17 03:13:29;;;;;;;11.57;10.60;;;16.00;1.00;;;;;;4989474;28;20474;-68
2023/06/17 03:15:58;;;;;;;12.00;11.00;;;16.00;1.00;;;;;;4986584;28;20467;-69
2023/06/17 03:18:25;;;;;;;12.37;11.17;;;16.10;1.00;;;;;;4990707;28;20483;-69
2023/06/17 03:20:53;;;;;;;13.50;12.13;;;16.00;1.00;;;;;;4986474;28;20458;-70
2023/06/17 03:23:22;;;;;;;12.17;11.07;;;16.10;1.00;;;;;;4989957;28;20549;-69
2023/06/17 03:25:49;;;;;;;13.30;12.00;;;16.10;1.00;;;;;;4987563;28;20857;-74
2023/06/17 03:28:17;;;;;;;12.43;11.23;;;16.10;1.00;;;;;;4991577;28;20536;-69
2023/06/17 03:30:45;;;;;;;13.20;12.00;;;16.10;1.00;;;;;;4990153;28;20458;-70
2023/06/17 03:33:13;;;;;;;14.43;12.23;;;16.20;1.00;;;;;;4991293;28;20557;-69
2023/06/17 03:35:41;;;;;;;12.90;11.80;;;16.20;1.00;;;;;;4994087;28;20475;-69
2023/06/17 03:38:10;;;;;;;12.47;11.37;;;16.20;1.00;;;;;;4994102;28;20483;-69
2023/06/17 03:40:38;;;;;;;12.97;11.83;;;16.20;1.00;;;;;;4995968;28;20545;-70
2023/06/17 03:43:05;;;;;;;13.40;12.10;;;16.20;1.00;;;;;;4990637;28;21566;-71
2023/06/17 03:45:33;;;;;;;15.20;12.73;;;16.30;1.00;;;;;;4994471;28;20459;-69
2023/06/17 03:48:00;;;;;;;13.30;12.20;;;16.30;1.00;;;;;;4995477;28;20896;-68
2023/06/17 03:50:27;;;;;;;13.73;12.47;;;16.30;1.00;;;;;;4996514;28;20497;-70
2023/06/17 03:52:55;;;;;;;14.63;13.23;;;16.30;1.00;;;;;;4991198;28;20459;-70
2023/06/17 03:55:23;;;;;;;12.83;11.70;;;16.30;1.00;;;;;;4991199;28;20521;-69
2023/06/17 03:57:52;;;;;;;12.53;11.23;;;16.40;1.00;;;;;;4994582;28;20485;-69
2023/06/17 04:00:19;;;;;;;14.00;12.80;;;16.40;1.00;;;;;;4994852;28;20451;-68
2023/06/17 04:02:47;;;;;;;12.73;11.73;;;16.40;1.00;;;;;;4994132;28;20483;-68
2023/06/17 04:05:15;;;;;;;13.70;12.60;;;16.50;1.00;;;;;;4989735;28;20460;-68
2023/06/17 04:07:42;;;;;;;13.97;12.67;;;16.50;1.00;;;;;;4993560;28;20526;-69
2023/06/17 04:10:10;;;;;;;12.77;11.70;;;16.50;1.00;;;;;;4993181;28;20459;-69
2023/06/17 04:12:38;;;;;;;13.93;12.73;;;16.60;1.00;;;;;;4992221;28;20491;-68
2023/06/17 04:15:08;;;;;;;12.70;11.70;;;16.60;1.00;;;;;;4991617;28;20472;-69
2023/06/17 04:17:36;;;;;;;16.13;14.63;;;16.70;1.00;;;;;;4987925;28;21513;-70
2023/06/17 04:20:10;;;;;;;13.40;12.20;;;16.70;1.00;;;;;;4990181;28;20455;-71
2023/06/17 04:22:38;;;;;;;14.03;12.73;;;16.80;1.00;;;;;;4990152;28;20500;-68
2023/06/17 04:25:07;;;;;;;13.07;11.97;;;16.80;1.00;;;;;;4993745;28;20459;-68
2023/06/17 04:27:34;;;;;;;14.20;12.93;;;16.80;1.00;;;;;;4992409;28;20467;-71
2023/06/17 04:30:02;;;;;;;14.93;13.43;;;16.90;1.00;;;;;;4991122;28;20956;-69
2023/06/17 04:32:34;;;;;;;15.73;14.30;;;16.90;1.00;;;;;;4991375;28;20497;-74
2023/06/17 04:35:03;;;;;;;15.47;13.87;;;16.90;1.00;;;;;;4990657;28;20550;-69
2023/06/17 04:37:32;;;;;;;15.43;14.13;;;16.90;1.00;;;;;;4990977;28;20489;-68
2023/06/17 04:39:59;;;;;;;14.97;13.77;;;16.90;1.00;;;;;;4993042;28;20534;-69
2023/06/17 04:42:27;;;;;;;15.17;13.87;;;17.00;1.00;;;;;;4988856;28;20478;-70
2023/06/17 04:44:54;;;;;;;14.90;13.60;;;17.10;1.00;;;;;;4990188;28;21276;-77
2023/06/17 04:47:21;;;;;;;15.90;14.40;;;17.10;1.00;;;;;;4993869;28;20464;-77
2023/06/17 04:49:51;;;;;;;16.93;15.47;;;17.20;1.00;;;;;;4993789;28;20463;-76
2023/06/17 04:52:19;;;;;;;15.63;14.37;;;17.20;1.00;;;;;;4991540;28;20461;-78
2023/06/17 04:54:46;;;;;;;17.17;15.67;;;17.20;1.00;;;;;;4994429;28;20456;-76
2023/06/17 04:57:14;;;;;;;17.00;15.40;;;17.30;1.00;;;;;;4994659;28;21041;-77
2023/06/17 04:59:41;;;;;;;16.50;15.17;;;17.40;1.00;;;;;;4994413;28;20459;-79
2023/06/17 05:02:08;;;;;;;18.43;16.67;;;17.50;1.00;;;;;;4992517;28;20479;-78
2023/06/17 05:04:35;;;;;;;17.10;15.63;;;17.60;1.00;;;;;;4990506;28;20494;-77
2023/06/17 05:07:03;;;;;;;16.90;15.60;;;17.70;1.00;;;;;;4992897;28;20533;-77
2023/06/17 05:09:30;;;;;;;18.23;16.73;;;17.80;1.00;;;;;;4993984;28;20534;-79
2023/06/17 05:11:57;;;;;;;18.73;16.87;;;17.80;1.00;;;;;;4991898;28;20471;-78
2023/06/17 05:14:24;;;;;;;18.23;16.73;;;17.80;1.00;;;;;;4993288;28;20478;-77
2023/06/17 05:16:52;;;;;;;16.73;15.33;;;17.80;1.00;;;;;;4991901;28;20554;-78
2023/06/17 05:19:20;;;;;;;18.00;16.40;;;17.90;1.00;;;;;;4992131;28;20460;-79
2023/06/17 05:21:48;;;;;;;17.70;16.27;;;18.00;1.00;;;;;;4987508;28;20926;-78
2023/06/17 05:24:16;;;;;;;16.83;15.40;;;18.00;1.00;;;;;;4997733;28;20865;-77
2023/06/17 05:26:43;;;;;;;15.60;14.20;;;18.10;1.00;;;;;;4991938;28;20589;-78
2023/06/17 05:29:10;;;;;;;17.03;15.53;;;18.10;1.00;;;;;;4988170;28;20439;-77
2023/06/17 05:31:37;;;;;;;16.50;14.90;;;18.00;1.00;;;;;;4992493;28;20480;-77
2023/06/17 05:34:04;;;;;;;16.67;15.27;;;18.00;1.00;;;;;;4989189;28;20483;-77
2023/06/17 05:36:31;;;;;;;16.97;15.47;;;18.10;1.00;;;;;;4990550;28;20487;-79
2023/06/17 05:38:58;;;;;;;14.63;13.30;;;18.30;1.00;;;;;;4989166;28;20577;-78
2023/06/17 05:41:27;;;;;;;15.70;14.30;;;18.40;1.00;;;;;;4993097;28;20522;-78
2023/06/17 05:43:53;;;;;;;13.70;12.50;;;18.50;1.00;;;;;;4990837;28;20468;-73
2023/06/17 05:46:21;;;;;;;13.57;12.37;;;18.50;1.00;;;;;;4994065;28;20469;-76
2023/06/17 05:48:47;;;;;;;17.27;15.70;;;18.50;1.00;;;;;;4991733;28;20899;-77
2023/06/17 05:51:16;;;;;;;15.77;14.57;;;18.50;1.00;;;;;;4992145;28;20460;-77
2023/06/17 05:53:43;;;;;;;13.63;12.53;;;18.50;1.00;;;;;;4992316;28;20463;-77
2023/06/17 05:56:11;;;;;;;15.77;13.70;;;18.50;1.00;;;;;;4984118;28;20571;-77
2023/06/17 05:58:39;;;;;;;14.20;13.00;;;18.50;1.00;;;;;;5006481;28;21003;-77
2023/06/17 06:01:06;;;;;;;15.30;14.00;;;18.60;1.00;;;;;;4994680;28;20469;-79
2023/06/17 06:03:33;;;;;;;15.03;13.67;;;18.60;1.00;;;;;;4992091;28;20557;-78
2023/06/17 06:06:02;;;;;;;14.40;13.20;;;18.60;1.00;;;;;;4995955;28;20475;-76
2023/06/17 06:08:31;;;;;;;15.50;14.17;;;18.70;1.00;;;;;;4996843;28;20559;-77
2023/06/17 06:10:59;;;;;;;15.73;14.43;;;18.70;1.00;;;;;;4975006;28;20520;-76
2023/06/17 06:13:28;;;;;;;15.80;14.40;;;18.80;1.00;;;;;;4992748;28;21269;-78
2023/06/17 06:15:56;;;;;;;16.23;14.83;;;18.70;1.00;;;;;;4993538;28;21031;-76
2023/06/17 06:18:23;;;;;;;16.53;15.23;;;18.60;1.00;;;;;;4991706;28;20463;-78
2023/06/17 06:20:50;;;;;;;15.70;14.20;;;18.60;1.00;;;;;;4990733;28;20465;-76
2023/06/17 06:23:17;;;;;;;17.43;15.80;;;18.70;1.00;;;;;;4990573;28;20565;-78
2023/06/17 06:25:44;;;;;;;17.80;16.30;;;18.70;1.00;;;;;;4995958;28;20476;-76
2023/06/17 06:28:11;;;;;;;17.93;16.50;;;18.80;1.00;;;;;;4993048;28;20471;-77
2023/06/17 06:30:38;;;;;;;19.07;17.37;;;18.80;1.00;;;;;;4990950;28;21316;-70
2023/06/17 06:33:06;;;;;;;17.97;16.27;;;18.90;1.00;;;;;;4991368;28;20878;-69
2023/06/17 06:35:33;;;;;;;18.93;17.33;;;18.90;1.00;;;;;;4989654;28;20934;-69
2023/06/17 06:38:00;;;;;;;19.27;17.47;;;19.00;1.00;;;;;;4991622;28;20872;-71
2023/06/17 06:40:27;;;;;;;18.57;16.97;;;19.20;1.00;;;;;;4990410;28;20553;-71
2023/06/17 06:42:54;;;;;;;18.80;17.10;;;19.40;1.00;;;;;;4991256;28;20464;-70
2023/06/17 06:45:21;;;;;;;18.67;17.10;;;19.40;1.00;;;;;;4990271;28;20507;-69
2023/06/17 06:47:48;;;;;;;20.07;18.47;;;19.40;1.00;;;;;;4990788;28;20460;-69
2023/06/17 06:50:16;;;;;;;20.13;18.33;;;19.50;1.00;;;;;;4991094;28;20485;-73
2023/06/17 06:52:44;;;;;;;20.07;18.37;;;19.50;1.00;;;;;;4991044;28;20490;-70
2023/06/17 06:55:11;;;;;;;19.73;17.90;;;19.60;1.00;;;;;;4990269;28;20901;-69
2023/06/17 06:57:38;;;;;;;19.53;17.83;;;19.70;1.00;;;;;;4991545;28;20461;-68
2023/06/17 07:00:08;;;;;;;20.40;18.33;;;19.80;1.00;;;;;;4988818;28;21360;-69
2023/06/17 07:02:36;;;;;;;18.53;16.93;;;19.80;1.00;;;;;;4989485;28;20473;-69
2023/06/17 07:05:03;;;;;;;21.17;18.90;;;19.90;1.00;;;;;;4984883;28;20471;-69
2023/06/17 07:07:32;;;;;;;18.47;17.00;;;20.00;1.00;;;;;;4991541;28;21068;-70
2023/06/17 07:09:59;;;;;;;19.20;17.53;;;20.00;1.00;;;;;;4991839;28;20482;-69
2023/06/17 07:12:26;;;;;;;19.93;18.20;;;19.90;1.00;;;;;;4994060;28;20550;-68
2023/06/17 07:14:52;;;;;;;22.63;20.53;;;20.00;1.00;;;;;;4990077;28;20568;-70
2023/06/17 07:17:22;;;;;;;21.50;19.37;;;20.00;1.00;;;;;;4987944;28;20512;-70
2023/06/17 07:19:49;;;;;;;20.17;18.57;;;19.90;1.00;;;;;;4993345;28;20486;-69
2023/06/17 07:22:16;;;;;;;21.33;19.23;;;20.00;1.00;;;;;;4988602;28;20475;-69
2023/06/17 07:24:44;;;;;;;19.30;17.70;;;20.00;1.00;;;;;;4987801;28;20565;-70
2023/06/17 07:27:12;;;;;;;21.30;19.50;;;20.10;1.00;;;;;;4989097;28;20466;-70
2023/06/17 07:29:39;;;;;;;19.30;17.57;;;20.10;1.00;;;;;;4986397;28;20472;-69
2023/06/17 07:32:06;;;;;;;21.53;19.73;;;20.20;1.00;;;;;;4991477;28;20467;-71
2023/06/17 07:34:33;;;;;;;20.53;18.93;;;20.20;1.00;;;;;;4989231;28;20466;-68
2023/06/17 07:37:00;;;;;;;20.90;19.00;;;20.20;1.00;;;;;;4989937;28;21161;-70
2023/06/17 07:39:27;;;;;;;19.77;17.90;;;20.20;1.00;;;;;;4992666;28;20560;-69
2023/06/17 07:41:55;;;;;;;20.50;18.80;;;20.20;1.00;;;;;;4991692;28;20486;-74
2023/06/17 07:44:22;;;;;;;19.73;18.13;;;20.40;1.00;;;;;;4990553;28;21001;-69
2023/06/17 07:46:49;;;;;;;19.97;18.17;;;20.40;1.00;;;;;;4993607;28;20546;-69
2023/06/17 07:49:16;;;;;;;20.37;18.70;;;20.40;1.00;;;;;;4990040;28;20474;-69
2023/06/17 07:51:43;;;;;;;19.13;17.53;;;20.40;1.00;;;;;;4995437;28;20593;-69
2023/06/17 07:54:09;;;;;;;18.37;16.77;;;20.50;1.00;;;;;;4994400;28;20486;-70
2023/06/17 07:56:37;;;;;;;17.47;16.00;;;20.70;1.00;;;;;;4997103;28;20550;-71
2023/06/17 07:59:05;;;;;;;20.00;18.37;;;20.90;1.00;;;;;;4992369;28;20503;-69
2023/06/17 08:01:33;;;;;;;22.53;19.37;;;21.10;1.00;;;;;;4988577;28;20984;-71
2023/06/17 08:04:00;;;;;;;19.33;17.57;;;21.30;1.00;;;;;;4991228;28;20487;-69
2023/06/17 08:06:29;;;;;;;18.83;17.23;;;21.40;1.00;;;;;;4989858;28;20546;-69
2023/06/17 08:08:55;;;;;;;18.27;16.57;;;21.50;1.00;;;;;;4992141;28;20460;-70
2023/06/17 08:11:22;;;;;;;17.00;15.60;;;21.50;1.00;;;;;;4989643;28;20457;-69
2023/06/17 08:13:49;;;;;;;17.13;15.73;;;21.50;1.00;;;;;;4994564;28;20477;-69
2023/06/17 08:16:18;;;;;;;17.77;15.97;;;21.40;1.00;;;;;;4998271;28;20479;-70
2023/06/17 08:18:45;;;;;;;18.20;16.70;;;21.20;1.00;;;;;;4994284;28;20475;-70
2023/06/17 08:21:12;;;;;;;18.40;16.80;;;21.00;1.00;;;;;;4994671;28;20534;-70
2023/06/17 08:23:41;;;;;;;19.93;18.33;;;20.80;1.00;;;;;;4993946;28;20510;-69
2023/06/17 08:26:08;;;;;;;18.90;17.30;;;20.60;1.00;;;;;;4992664;28;20458;-69
2023/06/17 08:28:35;;;;;;;21.17;19.47;;;20.60;1.00;;;;;;4994448;28;20554;-70
2023/06/17 08:31:02;;;;;;;20.50;18.70;;;20.70;1.00;;;;;;4985492;28;20488;-69
2023/06/17 08:33:31;;;;;;;20.63;18.73;;;20.70;1.00;;;;;;4987879;28;20487;-69
2023/06/17 08:35:58;;;;;;;18.80;17.20;;;20.80;1.00;;;;;;4989311;28;20463;-68
2023/06/17 08:38:25;;;;;;;20.80;19.27;;;20.70;1.00;;;;;;4990372;28;20468;-70
2023/06/17 08:40:53;;;;;;;17.67;16.27;;;20.80;1.00;;;;;;4988876;28;20528;-69
2023/06/17 08:43:21;;;;;;;17.97;16.53;;;21.00;1.00;;;;;;4991102;28;20476;-69
2023/06/17 08:45:49;;;;;;;16.47;15.13;;;21.00;1.00;;;;;;4992207;28;20483;-69
2023/06/17 08:48:16;;;;;;;16.63;15.33;;;21.20;1.00;;;;;;4992123;28;20459;-70
2023/06/17 08:50:47;;;;;;;18.20;16.60;;;21.40;1.00;;;;;;4993655;28;20463;-68
2023/06/17 08:53:14;;;;;;;18.23;16.77;;;21.40;1.00;;;;;;4992158;28;21406;-69
2023/06/17 08:55:42;;;;;;;16.93;15.50;;;21.30;1.00;;;;;;4993559;28;20485;-70
2023/06/17 08:58:10;;;;;;;17.13;15.70;;;21.30;1.00;;;;;;4993520;28;21453;-69
2023/06/17 09:00:36;;;;;;;16.73;15.33;;;21.30;1.00;;;;;;4994563;28;21014;-69
2023/06/17 09:03:08;;;;;;;17.97;16.27;;;21.50;1.00;;;;;;4993849;28;20544;-69
2023/06/17 09:05:35;;;;;;;17.40;15.53;;;21.60;1.00;;;;;;4997256;28;20537;-69
2023/06/17 09:08:05;;;;;;;17.90;16.30;;;21.70;1.00;;;;;;4990019;28;20496;-69
2023/06/17 09:10:43;;;;;;;15.47;14.23;;;21.80;1.00;;;;;;4992840;28;20491;-69
2023/06/17 09:13:09;;;;;;;18.00;16.30;;;22.00;1.00;;;;;;4989962;28;20474;-69
2023/06/17 09:15:40;;;;;;;17.30;15.63;;;22.10;1.00;;;;;;4990736;28;20463;-68
2023/06/17 09:18:07;;;;;;;17.20;15.80;;;22.00;1.00;;;;;;4991696;28;20469;-70
2023/06/17 09:20:35;;;;;;;16.33;14.93;;;22.00;1.00;;;;;;4993966;28;20863;-69
2023/06/17 09:23:03;;;;;;;18.00;16.30;;;22.10;1.00;;;;;;4990371;28;20474;-69
2023/06/17 09:25:34;;;;;;;17.33;15.80;;;22.10;1.00;;;;;;4992763;28;20459;-69
2023/06/17 09:28:02;;;;;;;17.70;16.30;;;22.10;1.00;;;;;;4992672;28;20894;-69
2023/06/17 09:30:29;;;;;;;16.83;15.53;;;22.20;1.00;;;;;;4992785;28;20462;-69
2023/06/17 09:32:56;;;;;;;16.07;14.87;;;22.20;1.00;;;;;;4991642;28;20545;-69
2023/06/17 09:35:23;;;;;;;16.80;15.30;;;22.50;1.00;;;;;;4993318;28;20462;-70
2023/06/17 09:37:52;;;;;;;16.70;15.40;;;22.70;1.00;;;;;;4991030;28;20496;-70
2023/06/17 09:40:21;;;;;;;16.67;15.23;;;23.00;1.00;;;;;;4992784;28;20466;-70
2023/06/17 09:42:50;;;;;;;16.60;15.20;;;23.10;1.00;;;;;;4992869;28;20475;-69
2023/06/17 09:45:24;;;;;;;16.83;15.47;;;23.30;1.00;;;;;;4989796;28;20460;-68
2023/06/17 09:47:52;;;;;;;15.73;14.47;;;23.60;1.00;;;;;;4990856;28;20551;-69
2023/06/17 09:50:22;;;;;;;15.70;14.30;;;23.60;1.00;;;;;;4990878;28;20451;-68
2023/06/17 09:52:52;;;;;;;18.83;14.93;;;23.60;1.00;;;;;;4991855;28;20516;-69
2023/06/17 09:55:21;;;;;;;15.37;13.97;;;23.60;1.00;;;;;;4993068;28;20834;-68
2023/06/17 09:57:53;;;;;;;13.97;12.87;;;23.80;1.00;;;;;;4991122;28;20854;-70
2023/06/17 10:00:23;;;;;;;14.93;13.73;;;23.90;1.00;;;;;;4991394;28;20908;-68
2023/06/17 10:02:50;;;;;;;14.90;13.80;;;24.10;1.00;;;;;;4992086;28;20980;-69
2023/06/17 10:05:20;;;;;;;15.33;14.03;;;23.70;1.00;;;;;;4991249;28;20472;-68
2023/06/17 10:07:49;;;;;;;15.23;13.83;;;23.60;1.00;;;;;;4991048;28;20551;-68
2023/06/17 10:10:17;;;;;;;15.10;13.90;;;23.50;1.00;;;;;;4987964;28;20528;-70
2023/06/17 10:12:48;;;;;;;15.00;13.80;;;23.40;1.00;;;;;;4989985;28;20472;-68
2023/06/17 10:15:18;;;;;;;14.57;13.47;;;23.30;1.00;;;;;;4991363;28;20479;-69
2023/06/17 10:17:46;;;;;;;14.80;13.50;;;23.30;1.00;;;;;;4988838;28;20971;-69
2023/06/17 10:20:15;;;;;;;13.80;12.80;;;23.30;1.00;;;;;;4987993;28;20480;-68
2023/06/17 10:22:44;;;;;;;14.47;13.37;;;23.20;1.00;;;;;;4992495;28;20602;-70
2023/06/17 10:25:15;;;;;;;16.33;15.03;;;23.10;1.00;;;;;;4989387;28;20956;-69
2023/06/17 10:27:47;;;;;;;16.10;14.57;;;23.00;1.00;;;;;;4988567;28;20460;-69
2023/06/17 10:30:28;;;;;;;14.50;13.50;;;23.10;1.00;;;;;;4990151;28;20480;-69
2023/06/17 10:33:01;;;;;;;15.23;13.83;;;23.40;1.00;;;;;;4990109;28;20471;-71
2023/06/17 10:35:38;;;;;;;14.83;13.73;;;23.90;1.00;;;;;;4990940;28;21008;-68
2023/06/17 10:38:06;;;;;;;12.97;11.93;;;24.30;1.00;;;;;;4991378;28;20470;-69
2023/06/17 10:40:36;;;;;;;14.90;13.80;;;24.80;1.00;;;;;;4992067;28;20456;-70
2023/06/17 10:43:21;;;;;;;13.33;12.33;;;25.00;1.00;;;;;;4993915;28;21003;-69
2023/06/17 10:45:50;;;;;;;12.93;11.70;;;24.90;1.00;;;;;;4992126;28;20474;-69
2023/06/17 10:48:21;;;;;;;12.93;11.93;;;24.90;1.00;;;;;;4993780;28;20451;-69
2023/06/17 10:50:53;;;;;;;12.70;11.70;;;25.30;1.00;;;;;;4988801;28;20464;-68
2023/06/17 10:53:28;;;;;;;14.20;13.07;;;26.00;1.00;;;;;;4993826;28;20531;-70
2023/06/17 10:55:56;;;;;;;13.70;12.60;;;26.40;1.00;;;;;;4989845;28;20902;-70
2023/06/17 10:58:29;;;;;;;13.37;12.37;;;27.00;1.00;;;;;;4994880;28;21009;-69
2023/06/17 11:01:06;;;;;;;12.07;11.23;;;27.60;1.00;;;;;;4993154;28;20473;-69
2023/06/17 11:03:33;;;;;;;14.10;13.00;;;28.50;1.00;;;;;;4994362;28;20480;-69
2023/06/17 11:06:01;;;;;;;12.10;11.30;;;29.80;1.00;;;;;;4994698;28;21135;-71
2023/06/17 11:08:30;;;;;;;13.33;12.40;;;30.80;1.00;;;;;;4993952;28;20462;-69
2023/06/17 11:11:10;;;;;;;11.40;10.60;;;31.50;1.00;;;;;;5001415;28;20476;-72
2023/06/17 11:13:43;;;;;;;11.77;10.97;;;32.40;1.00;;;;;;4994144;28;20569;-69
2023/06/17 11:16:11;;;;;;;12.80;11.80;;;32.80;1.00;;;;;;4989269;28;20498;-70
2023/06/17 11:18:38;;;;;;;11.00;10.30;;;33.50;1.00;;;;;;4988976;28;20470;-71
2023/06/17 11:21:06;;;;;;;12.57;11.53;;;34.50;1.00;;;;;;4990047;28;20525;-69
2023/06/17 11:23:33;;;;;;;11.20;10.20;;;34.30;1.00;;;;;;4990784;28;20557;-71
2023/06/17 11:26:01;;;;;;;12.70;11.60;;;34.90;1.00;;;;;;4990076;28;21152;-70
2023/06/17 11:28:28;;;;;;;10.23;9.50;;;34.90;1.00;;;;;;4989071;28;20472;-71
2023/06/17 11:30:57;;;;;;;12.47;11.37;;;34.60;1.00;;;;;;4990261;28;20566;-70
2023/06/17 11:33:24;;;;;;;11.00;10.10;;;35.30;1.00;;;;;;4989486;28;20502;-69
2023/06/17 11:35:53;;;;;;;10.20;9.10;;;35.90;1.00;;;;;;4990992;28;20463;-69
2023/06/17 11:38:22;;;;;;;10.03;9.23;;;35.40;1.00;;;;;;4992146;28;20505;-69
2023/06/17 11:40:53;;;;;;;9.50;8.70;;;35.10;1.00;;;;;;4992478;28;21274;-71
2023/06/17 11:43:24;;;;;;;12.20;11.00;;;34.30;1.00;;;;;;4988229;28;20474;-70
2023/06/17 11:45:53;;;;;;;11.37;10.27;;;32.10;1.00;;;;;;4990744;28;20463;-70
2023/06/17 11:48:26;;;;;;;11.57;10.67;;;30.10;1.00;;;;;;4989898;28;20489;-70
2023/06/17 11:50:55;;;;;;;9.37;8.57;;;28.70;1.00;;;;;;4986353;28;20494;-71
2023/06/17 11:53:29;;;;;;;9.47;8.50;;;27.30;1.00;;;;;;4987853;28;20596;-70
2023/06/17 11:56:01;;;;;;;9.57;8.87;;;25.70;1.00;;;;;;4989484;28;20476;-70
2023/06/17 11:58:28;;;;;;;9.73;8.93;;;24.70;1.00;;;;;;4991992;28;20496;-70
2023/06/17 12:01:00;;;;;;;10.67;9.87;;;24.10;1.00;;;;;;4989762;28;21791;-71
2023/06/17 12:03:28;;;;;;;9.73;8.90;;;23.60;1.00;;;;;;4993916;28;20473;-69
2023/06/17 12:05:57;;;;;;;11.57;10.67;;;23.30;1.00;;;;;;4991764;28;21120;-71
2023/06/17 12:08:24;;;;;;;10.67;9.87;;;23.00;1.00;;;;;;4993571;28;20546;-70
2023/06/17 12:10:54;;;;;;;11.90;11.00;;;22.80;1.00;;;;;;4990083;28;20480;-71
2023/06/17 12:13:21;;;;;;;11.47;10.67;;;22.70;1.00;;;;;;4992882;28;20517;-71
2023/06/17 12:15:48;;;;;;;12.53;11.50;;;22.50;1.00;;;;;;4991598;28;20473;-72
2023/06/17 12:18:15;;;;;;;11.73;10.87;;;22.40;1.00;;;;;;4988566;28;20473;-71
2023/06/17 12:20:50;;;;;;;11.53;10.73;;;22.30;1.00;;;;;;4987157;28;20462;-72
2023/06/17 12:23:18;;;;;;;10.50;9.50;;;22.30;1.00;;;;;;4988142;28;20553;-70
2023/06/17 12:25:46;;;;;;;8.73;8.03;;;22.30;1.00;;;;;;4992650;28;20463;-73
2023/06/17 12:28:16;;;;;;;7.07;6.57;;;22.30;1.00;;;;;;4988167;28;20628;-69
2023/06/17 12:30:43;;;;;;;7.03;6.53;;;22.20;1.00;;;;;;4986090;28;20470;-70
2023/06/17 12:33:11;;;;;;;5.80;5.40;;;22.10;1.00;;;;;;4989167;28;20481;-69
2023/06/17 12:35:39;;;;;;;6.70;5.90;;;22.00;1.00;;;;;;4989339;28;20548;-69
2023/06/17 12:38:10;;;;;;;6.27;5.67;;;21.90;1.00;;;;;;4970127;28;20571;-69
2023/06/17 12:40:37;;;;;;;5.93;5.53;;;22.00;1.00;;;;;;4992863;28;20554;-69
2023/06/17 12:43:04;;;;;;;6.47;5.83;;;22.30;1.00;;;;;;4991472;28;20486;-70
2023/06/17 12:45:31;;;;;;;6.83;6.23;;;22.50;1.00;;;;;;4992441;28;20488;-70